sensor_id;sensor_type;location;lat;lon;timestamp;temperature;humidity
19586;DHT22;9939;49.246;9.106;2023-04-15T00:00:47;5.40;99.90
19586;DHT22;9939;49.246;9.106;2023-04-15T00:03:34;5.20;99.90
19586;DHT22;9939;49.246;9.106;2023-04-15T00:06:22;5.30;99.90
19586;DHT22;9939;49.246;9.106;2023-04-15T00:09:09;5.20;99.90
19586;DHT22;9939;49.246;9.106;2023-04-15T00:11:57;5.10;99.90
19586;DHT22;9939;49.246;9.106;2023-04-15T00:14:44;5.10;99.90
19586;DHT22;9939;49.246;9.106;2023-04-15T00:17:32;5.20;99.90
19586;DHT22;9939;49.246;9.106;2023-04-15T00:20:19;5.10;99.90
19586;DHT22;9939;49.246;9.106;2023-04-15T00:23:07;5.20;99.90
19586;DHT22;9939;49.246;9.106;2023-04-15T00:25:54;5.30;99.90
19586;DHT22;9939;49.246;9.106;2023-04-15T00:28:41;5.10;99.90
19586;DHT22;9939;49.246;9.106;2023-04-15T00:31:30;5.10;99.90
19586;DHT22;9939;49.246;9.106;2023-04-15T00:34:17;5.00;99.90
19586;DHT22;9939;49.246;9.106;2023-04-15T00:37:05;5.10;99.90
19586;DHT22;9939;49.246;9.106;2023-04-15T00:39:52;5.20;99.90
19586;DHT22;9939;49.246;9.106;2023-04-15T00:42:40;5.00;99.90
19586;DHT22;9939;49.246;9.106;2023-04-15T00:45:27;4.70;99.90
19586;DHT22;9939;49.246;9.106;2023-04-15T00:48:15;4.90;99.90
19586;DHT22;9939;49.246;9.106;2023-04-15T00:51:03;4.60;99.90
19586;DHT22;9939;49.246;9.106;2023-04-15T00:53:51;4.50;99.90
19586;DHT22;9939;49.246;9.106;2023-04-15T00:56:38;4.70;99.90
19586;DHT22;9939;49.246;9.106;2023-04-15T00:59:25;4.70;99.90
19586;DHT22;9939;49.246;9.106;2023-04-15T01:02:13;4.70;99.90
19586;DHT22;9939;49.246;9.106;2023-04-15T01:05:01;4.60;99.90
19586;DHT22;9939;49.246;9.106;2023-04-15T01:07:48;4.50;99.90
19586;DHT22;9939;49.246;9.106;2023-04-15T01:10:36;4.40;99.90
19586;DHT22;9939;49.246;9.106;2023-04-15T01:13:23;4.50;99.90
19586;DHT22;9939;49.246;9.106;2023-04-15T01:16:12;4.60;99.90
19586;DHT22;9939;49.246;9.106;2023-04-15T01:18:59;4.60;99.90
19586;DHT22;9939;49.246;9.106;2023-04-15T01:21:48;4.60;99.90
19586;DHT22;9939;49.246;9.106;2023-04-15T01:24:37;4.30;99.90
19586;DHT22;9939;49.246;9.106;2023-04-15T01:27:25;4.20;99.90
19586;DHT22;9939;49.246;9.106;2023-04-15T01:30:12;4.20;99.90
19586;DHT22;9939;49.246;9.106;2023-04-15T01:33:01;4.30;99.90
19586;DHT22;9939;49.246;9.106;2023-04-15T01:35:51;4.30;99.90
19586;DHT22;9939;49.246;9.106;2023-04-15T01:38:38;4.10;99.90
19586;DHT22;9939;49.246;9.106;2023-04-15T01:41:26;4.10;99.90
19586;DHT22;9939;49.246;9.106;2023-04-15T01:44:14;4.20;99.90
19586;DHT22;9939;49.246;9.106;2023-04-15T01:47:02;4.20;99.90
19586;DHT22;9939;49.246;9.106;2023-04-15T01:49:49;4.20;99.90
19586;DHT22;9939;49.246;9.106;2023-04-15T01:52:36;4.00;99.90
19586;DHT22;9939;49.246;9.106;2023-04-15T01:55:24;3.90;99.90
19586;DHT22;9939;49.246;9.106;2023-04-15T01:58:11;3.90;99.90
19586;DHT22;9939;49.246;9.106;2023-04-15T02:00:58;4.10;99.90
19586;DHT22;9939;49.246;9.106;2023-04-15T02:03:46;4.00;99.90
19586;DHT22;9939;49.246;9.106;2023-04-15T02:06:34;4.10;99.90
19586;DHT22;9939;49.246;9.106;2023-04-15T02:09:22;4.10;99.90
19586;DHT22;9939;49.246;9.106;2023-04-15T02:12:09;4.10;99.90
19586;DHT22;9939;49.246;9.106;2023-04-15T02:14:57;4.20;99.90
19586;DHT22;9939;49.246;9.106;2023-04-15T02:17:45;4.10;99.90
19586;DHT22;9939;49.246;9.106;2023-04-15T02:20:37;3.90;99.90
19586;DHT22;9939;49.246;9.106;2023-04-15T02:23:25;3.70;99.90
19586;DHT22;9939;49.246;9.106;2023-04-15T02:26:13;3.80;99.90
19586;DHT22;9939;49.246;9.106;2023-04-15T02:29:01;3.80;99.90
19586;DHT22;9939;49.246;9.106;2023-04-15T02:31:48;3.90;99.90
19586;DHT22;9939;49.246;9.106;2023-04-15T02:34:36;3.80;99.90
19586;DHT22;9939;49.246;9.106;2023-04-15T02:37:28;3.80;99.90
19586;DHT22;9939;49.246;9.106;2023-04-15T02:40:17;3.90;99.90
19586;DHT22;9939;49.246;9.106;2023-04-15T02:43:05;3.90;99.90
19586;DHT22;9939;49.246;9.106;2023-04-15T02:45:54;3.80;99.90
19586;DHT22;9939;49.246;9.106;2023-04-15T02:48:42;3.70;99.90
19586;DHT22;9939;49.246;9.106;2023-04-15T02:51:30;3.80;99.90
19586;DHT22;9939;49.246;9.106;2023-04-15T02:54:18;3.70;99.90
19586;DHT22;9939;49.246;9.106;2023-04-15T02:57:06;3.60;99.90
19586;DHT22;9939;49.246;9.106;2023-04-15T02:59:54;3.60;99.90
19586;DHT22;9939;49.246;9.106;2023-04-15T03:02:42;3.50;99.90
19586;DHT22;9939;49.246;9.106;2023-04-15T03:05:29;3.60;99.90
19586;DHT22;9939;49.246;9.106;2023-04-15T03:08:18;3.60;99.90
19586;DHT22;9939;49.246;9.106;2023-04-15T03:11:07;3.40;99.90
19586;DHT22;9939;49.246;9.106;2023-04-15T03:13:56;3.40;99.90
19586;DHT22;9939;49.246;9.106;2023-04-15T03:16:49;3.30;99.90
19586;DHT22;9939;49.246;9.106;2023-04-15T03:19:40;3.30;99.90
19586;DHT22;9939;49.246;9.106;2023-04-15T03:22:28;3.40;99.90
19586;DHT22;9939;49.246;9.106;2023-04-15T03:25:16;3.40;99.90
19586;DHT22;9939;49.246;9.106;2023-04-15T03:28:03;3.60;99.90
19586;DHT22;9939;49.246;9.106;2023-04-15T03:30:52;3.50;99.90
19586;DHT22;9939;49.246;9.106;2023-04-15T03:33:40;3.60;99.90
19586;DHT22;9939;49.246;9.106;2023-04-15T03:36:30;3.80;99.90
19586;DHT22;9939;49.246;9.106;2023-04-15T03:39:20;4.00;99.90
19586;DHT22;9939;49.246;9.106;2023-04-15T03:42:07;4.10;99.90
19586;DHT22;9939;49.246;9.106;2023-04-15T03:44:55;4.10;99.90
19586;DHT22;9939;49.246;9.106;2023-04-15T03:47:42;4.20;99.90
19586;DHT22;9939;49.246;9.106;2023-04-15T03:50:30;4.10;99.90
19586;DHT22;9939;49.246;9.106;2023-04-15T03:53:17;4.10;99.90
19586;DHT22;9939;49.246;9.106;2023-04-15T03:56:05;4.00;99.90
19586;DHT22;9939;49.246;9.106;2023-04-15T03:58:52;3.90;99.90
19586;DHT22;9939;49.246;9.106;2023-04-15T04:01:40;3.90;99.90
19586;DHT22;9939;49.246;9.106;2023-04-15T04:04:30;3.80;99.90
19586;DHT22;9939;49.246;9.106;2023-04-15T04:07:18;3.90;99.90
19586;DHT22;9939;49.246;9.106;2023-04-15T04:10:06;3.90;99.90
19586;DHT22;9939;49.246;9.106;2023-04-15T04:12:53;3.90;99.90
19586;DHT22;9939;49.246;9.106;2023-04-15T04:15:41;3.90;99.90
19586;DHT22;9939;49.246;9.106;2023-04-15T04:18:28;3.90;99.90
19586;DHT22;9939;49.246;9.106;2023-04-15T04:21:16;3.70;99.90
19586;DHT22;9939;49.246;9.106;2023-04-15T04:24:03;3.60;99.90
19586;DHT22;9939;49.246;9.106;2023-04-15T04:26:50;3.70;99.90
19586;DHT22;9939;49.246;9.106;2023-04-15T04:29:38;3.70;99.90
19586;DHT22;9939;49.246;9.106;2023-04-15T04:32:25;3.80;99.90
19586;DHT22;9939;49.246;9.106;2023-04-15T04:35:13;3.70;99.90
19586;DHT22;9939;49.246;9.106;2023-04-15T04:38:00;3.70;99.90
19586;DHT22;9939;49.246;9.106;2023-04-15T04:40:47;3.70;99.90
19586;DHT22;9939;49.246;9.106;2023-04-15T04:43:35;3.60;99.90
19586;DHT22;9939;49.246;9.106;2023-04-15T04:46:22;3.50;99.90
19586;DHT22;9939;49.246;9.106;2023-04-15T04:49:10;3.50;99.90
19586;DHT22;9939;49.246;9.106;2023-04-15T04:51:57;3.40;99.90
19586;DHT22;9939;49.246;9.106;2023-04-15T04:54:44;3.30;99.90
19586;DHT22;9939;49.246;9.106;2023-04-15T04:57:31;3.30;99.90
19586;DHT22;9939;49.246;9.106;2023-04-15T05:00:19;3.20;99.90
19586;DHT22;9939;49.246;9.106;2023-04-15T05:03:06;3.30;99.90
19586;DHT22;9939;49.246;9.106;2023-04-15T05:05:54;3.40;99.90
19586;DHT22;9939;49.246;9.106;2023-04-15T05:08:42;3.40;99.90
19586;DHT22;9939;49.246;9.106;2023-04-15T05:11:29;3.40;99.90
19586;DHT22;9939;49.246;9.106;2023-04-15T05:14:17;3.30;99.90
19586;DHT22;9939;49.246;9.106;2023-04-15T05:17:04;3.30;99.90
19586;DHT22;9939;49.246;9.106;2023-04-15T05:19:51;3.40;99.90
19586;DHT22;9939;49.246;9.106;2023-04-15T05:22:40;3.40;99.90
19586;DHT22;9939;49.246;9.106;2023-04-15T05:25:27;3.50;99.90
19586;DHT22;9939;49.246;9.106;2023-04-15T05:28:15;3.50;99.90
19586;DHT22;9939;49.246;9.106;2023-04-15T05:31:02;3.60;99.90
19586;DHT22;9939;49.246;9.106;2023-04-15T05:33:50;3.50;99.90
19586;DHT22;9939;49.246;9.106;2023-04-15T05:36:37;3.50;99.90
19586;DHT22;9939;49.246;9.106;2023-04-15T05:39:24;3.50;99.90
19586;DHT22;9939;49.246;9.106;2023-04-15T05:42:12;3.80;99.90
19586;DHT22;9939;49.246;9.106;2023-04-15T05:45:00;3.90;99.90
19586;DHT22;9939;49.246;9.106;2023-04-15T05:47:47;3.80;99.90
19586;DHT22;9939;49.246;9.106;2023-04-15T05:50:39;3.80;99.90
19586;DHT22;9939;49.246;9.106;2023-04-15T05:53:26;4.20;99.90
19586;DHT22;9939;49.246;9.106;2023-04-15T05:56:14;4.30;99.90
19586;DHT22;9939;49.246;9.106;2023-04-15T05:59:01;4.30;99.90
19586;DHT22;9939;49.246;9.106;2023-04-15T06:01:49;4.40;99.90
19586;DHT22;9939;49.246;9.106;2023-04-15T06:04:38;4.50;99.90
19586;DHT22;9939;49.246;9.106;2023-04-15T06:07:25;4.60;99.90
19586;DHT22;9939;49.246;9.106;2023-04-15T06:10:12;4.60;99.90
19586;DHT22;9939;49.246;9.106;2023-04-15T06:13:00;4.80;99.90
19586;DHT22;9939;49.246;9.106;2023-04-15T06:15:47;4.90;99.90
19586;DHT22;9939;49.246;9.106;2023-04-15T06:18:35;4.80;99.90
19586;DHT22;9939;49.246;9.106;2023-04-15T06:21:22;5.00;99.90
19586;DHT22;9939;49.246;9.106;2023-04-15T06:24:10;5.20;99.90
19586;DHT22;9939;49.246;9.106;2023-04-15T06:26:57;5.30;99.90
19586;DHT22;9939;49.246;9.106;2023-04-15T06:29:44;5.50;99.90
19586;DHT22;9939;49.246;9.106;2023-04-15T06:32:32;5.50;99.90
19586;DHT22;9939;49.246;9.106;2023-04-15T06:35:19;5.50;99.90
19586;DHT22;9939;49.246;9.106;2023-04-15T06:38:07;5.80;99.90
19586;DHT22;9939;49.246;9.106;2023-04-15T06:40:54;5.80;99.90
19586;DHT22;9939;49.246;9.106;2023-04-15T06:43:41;6.00;99.90
19586;DHT22;9939;49.246;9.106;2023-04-15T06:46:29;6.30;99.90
19586;DHT22;9939;49.246;9.106;2023-04-15T06:49:16;6.40;99.90
19586;DHT22;9939;49.246;9.106;2023-04-15T06:52:04;6.60;99.90
19586;DHT22;9939;49.246;9.106;2023-04-15T06:54:52;7.00;99.90
19586;DHT22;9939;49.246;9.106;2023-04-15T06:57:39;7.40;99.90
19586;DHT22;9939;49.246;9.106;2023-04-15T07:00:27;7.50;99.90
19586;DHT22;9939;49.246;9.106;2023-04-15T07:03:14;7.70;99.90
19586;DHT22;9939;49.246;9.106;2023-04-15T07:06:02;7.60;99.90
19586;DHT22;9939;49.246;9.106;2023-04-15T07:08:52;8.10;99.90
19586;DHT22;9939;49.246;9.106;2023-04-15T07:11:42;7.90;99.90
19586;DHT22;9939;49.246;9.106;2023-04-15T07:14:30;7.70;99.90
19586;DHT22;9939;49.246;9.106;2023-04-15T07:17:17;7.70;99.90
19586;DHT22;9939;49.246;9.106;2023-04-15T07:20:05;8.10;99.90
19586;DHT22;9939;49.246;9.106;2023-04-15T07:22:52;8.50;99.90
19586;DHT22;9939;49.246;9.106;2023-04-15T07:25:40;8.80;99.90
19586;DHT22;9939;49.246;9.106;2023-04-15T07:28:27;9.30;99.90
19586;DHT22;9939;49.246;9.106;2023-04-15T07:31:15;9.50;99.90
19586;DHT22;9939;49.246;9.106;2023-04-15T07:34:03;8.90;99.90
19586;DHT22;9939;49.246;9.106;2023-04-15T07:36:51;9.60;99.90
19586;DHT22;9939;49.246;9.106;2023-04-15T07:39:41;9.90;99.90
19586;DHT22;9939;49.246;9.106;2023-04-15T07:42:29;10.10;99.90
19586;DHT22;9939;49.246;9.106;2023-04-15T07:45:17;10.30;99.90
19586;DHT22;9939;49.246;9.106;2023-04-15T07:48:04;10.30;99.90
19586;DHT22;9939;49.246;9.106;2023-04-15T07:50:52;10.50;99.90
19586;DHT22;9939;49.246;9.106;2023-04-15T07:53:40;10.30;99.90
19586;DHT22;9939;49.246;9.106;2023-04-15T07:56:28;9.60;99.90
19586;DHT22;9939;49.246;9.106;2023-04-15T07:59:16;9.90;99.90
19586;DHT22;9939;49.246;9.106;2023-04-15T08:02:03;10.40;99.90
19586;DHT22;9939;49.246;9.106;2023-04-15T08:04:51;11.20;99.90
19586;DHT22;9939;49.246;9.106;2023-04-15T08:07:39;11.70;99.90
19586;DHT22;9939;49.246;9.106;2023-04-15T08:10:28;11.80;99.90
19586;DHT22;9939;49.246;9.106;2023-04-15T08:13:15;12.30;99.90
19586;DHT22;9939;49.246;9.106;2023-04-15T08:16:14;12.70;99.90
19586;DHT22;9939;49.246;9.106;2023-04-15T08:19:01;13.20;99.90
19586;DHT22;9939;49.246;9.106;2023-04-15T08:21:50;13.20;99.90
19586;DHT22;9939;49.246;9.106;2023-04-15T08:24:38;13.70;99.90
19586;DHT22;9939;49.246;9.106;2023-04-15T08:27:25;13.90;99.90
19586;DHT22;9939;49.246;9.106;2023-04-15T08:30:13;13.70;99.90
19586;DHT22;9939;49.246;9.106;2023-04-15T08:33:00;13.20;99.90
19586;DHT22;9939;49.246;9.106;2023-04-15T08:35:48;13.10;99.90
19586;DHT22;9939;49.246;9.106;2023-04-15T08:38:35;12.80;99.90
19586;DHT22;9939;49.246;9.106;2023-04-15T08:41:23;12.90;99.90
19586;DHT22;9939;49.246;9.106;2023-04-15T08:44:11;12.40;99.90
19586;DHT22;9939;49.246;9.106;2023-04-15T08:47:00;12.80;99.90
19586;DHT22;9939;49.246;9.106;2023-04-15T08:49:47;13.70;99.90
19586;DHT22;9939;49.246;9.106;2023-04-15T08:52:39;14.40;99.90
19586;DHT22;9939;49.246;9.106;2023-04-15T08:55:29;13.60;99.90
19586;DHT22;9939;49.246;9.106;2023-04-15T08:58:16;13.40;99.90
19586;DHT22;9939;49.246;9.106;2023-04-15T09:01:05;13.80;99.90
19586;DHT22;9939;49.246;9.106;2023-04-15T09:03:52;14.50;99.90
19586;DHT22;9939;49.246;9.106;2023-04-15T09:06:43;15.20;99.90
19586;DHT22;9939;49.246;9.106;2023-04-15T09:09:31;17.10;99.90
19586;DHT22;9939;49.246;9.106;2023-04-15T09:12:18;18.90;99.90
19586;DHT22;9939;49.246;9.106;2023-04-15T09:15:06;18.50;99.90
19586;DHT22;9939;49.246;9.106;2023-04-15T09:17:55;21.20;99.90
19586;DHT22;9939;49.246;9.106;2023-04-15T09:20:42;21.30;99.90
19586;DHT22;9939;49.246;9.106;2023-04-15T09:23:30;20.20;99.90
19586;DHT22;9939;49.246;9.106;2023-04-15T09:26:18;20.30;99.90
19586;DHT22;9939;49.246;9.106;2023-04-15T09:29:09;20.20;99.90
19586;DHT22;9939;49.246;9.106;2023-04-15T09:31:57;19.30;99.90
19586;DHT22;9939;49.246;9.106;2023-04-15T09:34:55;18.90;99.90
19586;DHT22;9939;49.246;9.106;2023-04-15T09:37:42;18.30;99.90
19586;DHT22;9939;49.246;9.106;2023-04-15T09:40:33;18.20;99.90
19586;DHT22;9939;49.246;9.106;2023-04-15T09:43:21;17.50;99.90
19586;DHT22;9939;49.246;9.106;2023-04-15T09:46:08;17.00;99.90
19586;DHT22;9939;49.246;9.106;2023-04-15T09:49:06;16.90;99.90
19586;DHT22;9939;49.246;9.106;2023-04-15T09:51:58;17.30;99.90
19586;DHT22;9939;49.246;9.106;2023-04-15T09:54:53;18.10;99.90
19586;DHT22;9939;49.246;9.106;2023-04-15T09:57:44;19.20;99.90
19586;DHT22;9939;49.246;9.106;2023-04-15T10:00:33;18.60;99.90
19586;DHT22;9939;49.246;9.106;2023-04-15T10:03:21;18.70;99.90
19586;DHT22;9939;49.246;9.106;2023-04-15T10:06:09;19.00;99.90
19586;DHT22;9939;49.246;9.106;2023-04-15T10:08:57;17.70;99.90
19586;DHT22;9939;49.246;9.106;2023-04-15T10:11:45;17.30;99.90
19586;DHT22;9939;49.246;9.106;2023-04-15T10:14:34;17.20;99.90
19586;DHT22;9939;49.246;9.106;2023-04-15T10:17:21;17.80;99.90
19586;DHT22;9939;49.246;9.106;2023-04-15T10:20:09;17.40;99.90
19586;DHT22;9939;49.246;9.106;2023-04-15T10:22:58;16.80;99.90
19586;DHT22;9939;49.246;9.106;2023-04-15T10:25:47;17.50;99.90
19586;DHT22;9939;49.246;9.106;2023-04-15T10:28:35;18.50;99.90
19586;DHT22;9939;49.246;9.106;2023-04-15T10:31:22;19.10;99.90
19586;DHT22;9939;49.246;9.106;2023-04-15T10:34:10;19.20;99.90
19586;DHT22;9939;49.246;9.106;2023-04-15T10:37:00;19.40;99.90
19586;DHT22;9939;49.246;9.106;2023-04-15T10:39:48;19.30;99.90
19586;DHT22;9939;49.246;9.106;2023-04-15T10:42:36;18.80;99.90
19586;DHT22;9939;49.246;9.106;2023-04-15T10:45:24;18.30;99.90
19586;DHT22;9939;49.246;9.106;2023-04-15T10:48:13;18.70;99.90
19586;DHT22;9939;49.246;9.106;2023-04-15T10:51:02;18.40;99.90
19586;DHT22;9939;49.246;9.106;2023-04-15T10:53:49;18.20;99.90
19586;DHT22;9939;49.246;9.106;2023-04-15T10:56:37;17.70;99.90
19586;DHT22;9939;49.246;9.106;2023-04-15T10:59:24;17.00;99.90
19586;DHT22;9939;49.246;9.106;2023-04-15T11:02:11;16.40;99.90
19586;DHT22;9939;49.246;9.106;2023-04-15T11:04:59;15.80;99.90
19586;DHT22;9939;49.246;9.106;2023-04-15T11:07:49;15.20;99.90
19586;DHT22;9939;49.246;9.106;2023-04-15T11:13:24;15.10;99.90
19586;DHT22;9939;49.246;9.106;2023-04-15T11:16:13;15.00;99.90
19586;DHT22;9939;49.246;9.106;2023-04-15T11:19:00;14.60;99.90
19586;DHT22;9939;49.246;9.106;2023-04-15T11:21:48;14.60;99.90
19586;DHT22;9939;49.246;9.106;2023-04-15T11:24:36;14.60;99.90
19586;DHT22;9939;49.246;9.106;2023-04-15T11:27:23;14.60;99.90
19586;DHT22;9939;49.246;9.106;2023-04-15T11:30:44;15.20;99.90
19586;DHT22;9939;49.246;9.106;2023-04-15T11:33:24;15.90;99.90
19586;DHT22;9939;49.246;9.106;2023-04-15T11:36:12;17.30;99.90
19586;DHT22;9939;49.246;9.106;2023-04-15T11:38:59;17.60;99.90
19586;DHT22;9939;49.246;9.106;2023-04-15T11:41:47;17.20;99.90
19586;DHT22;9939;49.246;9.106;2023-04-15T11:44:34;16.80;98.50
19586;DHT22;9939;49.246;9.106;2023-04-15T11:47:22;16.60;98.00
19586;DHT22;9939;49.246;9.106;2023-04-15T11:50:13;15.90;98.50
19586;DHT22;9939;49.246;9.106;2023-04-15T11:53:03;16.40;99.90
19586;DHT22;9939;49.246;9.106;2023-04-15T11:55:54;16.40;99.10
19586;DHT22;9939;49.246;9.106;2023-04-15T11:58:41;17.20;99.90
19586;DHT22;9939;49.246;9.106;2023-04-15T12:01:33;17.10;99.40
19586;DHT22;9939;49.246;9.106;2023-04-15T12:04:21;16.90;99.90
19586;DHT22;9939;49.246;9.106;2023-04-15T12:07:12;16.30;99.90
19586;DHT22;9939;49.246;9.106;2023-04-15T12:09:59;15.70;99.90
19586;DHT22;9939;49.246;9.106;2023-04-15T12:12:50;15.50;99.90
19586;DHT22;9939;49.246;9.106;2023-04-15T12:15:38;15.10;99.90
19586;DHT22;9939;49.246;9.106;2023-04-15T12:18:26;15.10;99.90
19586;DHT22;9939;49.246;9.106;2023-04-15T12:21:13;15.10;99.90
19586;DHT22;9939;49.246;9.106;2023-04-15T12:24:01;15.20;99.90
19586;DHT22;9939;49.246;9.106;2023-04-15T12:26:50;15.00;99.90
19586;DHT22;9939;49.246;9.106;2023-04-15T12:29:39;14.50;99.90
19586;DHT22;9939;49.246;9.106;2023-04-15T12:32:27;14.40;99.90
19586;DHT22;9939;49.246;9.106;2023-04-15T12:35:15;14.20;99.90
19586;DHT22;9939;49.246;9.106;2023-04-15T12:38:02;14.30;99.90
19586;DHT22;9939;49.246;9.106;2023-04-15T12:40:49;14.40;99.90
19586;DHT22;9939;49.246;9.106;2023-04-15T12:43:37;14.20;99.90
19586;DHT22;9939;49.246;9.106;2023-04-15T12:46:25;14.10;99.90
19586;DHT22;9939;49.246;9.106;2023-04-15T12:49:13;13.90;99.90
19586;DHT22;9939;49.246;9.106;2023-04-15T12:52:02;13.50;99.90
19586;DHT22;9939;49.246;9.106;2023-04-15T12:54:49;13.30;99.90
19586;DHT22;9939;49.246;9.106;2023-04-15T12:57:37;13.40;99.90
19586;DHT22;9939;49.246;9.106;2023-04-15T13:00:24;13.40;99.90
19586;DHT22;9939;49.246;9.106;2023-04-15T13:03:11;13.10;99.90
19586;DHT22;9939;49.246;9.106;2023-04-15T13:05:59;13.10;99.90
19586;DHT22;9939;49.246;9.106;2023-04-15T13:08:48;13.10;99.90
19586;DHT22;9939;49.246;9.106;2023-04-15T13:11:44;13.30;99.90
19586;DHT22;9939;49.246;9.106;2023-04-15T13:14:32;13.30;99.90
19586;DHT22;9939;49.246;9.106;2023-04-15T13:17:19;13.60;99.90
19586;DHT22;9939;49.246;9.106;2023-04-15T13:20:08;13.30;99.90
19586;DHT22;9939;49.246;9.106;2023-04-15T13:22:56;13.30;99.90
19586;DHT22;9939;49.246;9.106;2023-04-15T13:25:44;13.40;99.90
19586;DHT22;9939;49.246;9.106;2023-04-15T13:28:31;13.50;99.90
19586;DHT22;9939;49.246;9.106;2023-04-15T13:31:18;13.30;99.90
19586;DHT22;9939;49.246;9.106;2023-04-15T13:34:06;13.40;99.90
19586;DHT22;9939;49.246;9.106;2023-04-15T13:36:53;13.70;99.90
19586;DHT22;9939;49.246;9.106;2023-04-15T13:39:41;13.80;99.90
19586;DHT22;9939;49.246;9.106;2023-04-15T13:42:28;13.60;99.90
19586;DHT22;9939;49.246;9.106;2023-04-15T13:45:15;13.60;99.90
19586;DHT22;9939;49.246;9.106;2023-04-15T13:48:03;13.50;99.90
19586;DHT22;9939;49.246;9.106;2023-04-15T13:50:50;13.40;99.90
19586;DHT22;9939;49.246;9.106;2023-04-15T13:53:38;13.60;99.90
19586;DHT22;9939;49.246;9.106;2023-04-15T13:56:25;13.60;99.90
19586;DHT22;9939;49.246;9.106;2023-04-15T13:59:13;13.50;99.90
19586;DHT22;9939;49.246;9.106;2023-04-15T14:02:00;13.40;99.90
19586;DHT22;9939;49.246;9.106;2023-04-15T14:04:48;13.40;99.90
19586;DHT22;9939;49.246;9.106;2023-04-15T14:07:35;13.20;99.90
19586;DHT22;9939;49.246;9.106;2023-04-15T14:10:23;13.40;99.90
19586;DHT22;9939;49.246;9.106;2023-04-15T14:13:10;13.30;99.90
19586;DHT22;9939;49.246;9.106;2023-04-15T14:15:57;13.40;99.90
19586;DHT22;9939;49.246;9.106;2023-04-15T14:18:45;13.50;99.90
19586;DHT22;9939;49.246;9.106;2023-04-15T14:21:32;13.40;99.90
19586;DHT22;9939;49.246;9.106;2023-04-15T14:24:19;13.20;99.90
19586;DHT22;9939;49.246;9.106;2023-04-15T14:27:07;13.00;99.90
19586;DHT22;9939;49.246;9.106;2023-04-15T14:29:54;13.00;99.90
19586;DHT22;9939;49.246;9.106;2023-04-15T14:32:43;12.80;99.90
19586;DHT22;9939;49.246;9.106;2023-04-15T14:35:32;12.70;99.90
19586;DHT22;9939;49.246;9.106;2023-04-15T14:38:19;12.80;99.90
19586;DHT22;9939;49.246;9.106;2023-04-15T14:41:08;12.60;99.90
19586;DHT22;9939;49.246;9.106;2023-04-15T14:43:57;12.30;99.90
19586;DHT22;9939;49.246;9.106;2023-04-15T14:46:44;12.30;99.90
19586;DHT22;9939;49.246;9.106;2023-04-15T14:49:31;12.10;99.90
19586;DHT22;9939;49.246;9.106;2023-04-15T14:52:19;11.90;99.90
19586;DHT22;9939;49.246;9.106;2023-04-15T14:55:07;11.80;99.90
19586;DHT22;9939;49.246;9.106;2023-04-15T14:57:56;11.70;99.90
19586;DHT22;9939;49.246;9.106;2023-04-15T15:00:43;11.70;99.90
19586;DHT22;9939;49.246;9.106;2023-04-15T15:03:31;11.70;99.90
19586;DHT22;9939;49.246;9.106;2023-04-15T15:06:19;11.60;99.90
19586;DHT22;9939;49.246;9.106;2023-04-15T15:09:06;11.40;99.90
19586;DHT22;9939;49.246;9.106;2023-04-15T15:11:54;11.30;99.90
19586;DHT22;9939;49.246;9.106;2023-04-15T15:14:43;11.20;99.90
19586;DHT22;9939;49.246;9.106;2023-04-15T15:17:31;11.00;99.90
19586;DHT22;9939;49.246;9.106;2023-04-15T15:20:18;11.00;99.90
19586;DHT22;9939;49.246;9.106;2023-04-15T15:23:06;10.90;99.90
19586;DHT22;9939;49.246;9.106;2023-04-15T15:25:53;11.00;99.90
19586;DHT22;9939;49.246;9.106;2023-04-15T15:28:40;11.10;99.90
19586;DHT22;9939;49.246;9.106;2023-04-15T15:31:28;11.20;99.90
19586;DHT22;9939;49.246;9.106;2023-04-15T15:34:15;11.20;99.90
19586;DHT22;9939;49.246;9.106;2023-04-15T15:37:03;11.30;99.90
19586;DHT22;9939;49.246;9.106;2023-04-15T15:39:50;11.30;99.90
19586;DHT22;9939;49.246;9.106;2023-04-15T15:42:38;11.40;99.90
19586;DHT22;9939;49.246;9.106;2023-04-15T15:45:25;11.20;99.90
19586;DHT22;9939;49.246;9.106;2023-04-15T15:48:13;11.10;99.90
19586;DHT22;9939;49.246;9.106;2023-04-15T15:51:00;11.00;99.90
19586;DHT22;9939;49.246;9.106;2023-04-15T15:53:50;10.90;99.90
19586;DHT22;9939;49.246;9.106;2023-04-15T15:56:37;10.80;99.90
19586;DHT22;9939;49.246;9.106;2023-04-15T15:59:25;10.40;99.90
19586;DHT22;9939;49.246;9.106;2023-04-15T16:02:12;10.30;99.90
19586;DHT22;9939;49.246;9.106;2023-04-15T16:05:00;10.50;99.90
19586;DHT22;9939;49.246;9.106;2023-04-15T16:07:48;10.50;99.90
19586;DHT22;9939;49.246;9.106;2023-04-15T16:10:36;10.70;99.90
19586;DHT22;9939;49.246;9.106;2023-04-15T16:13:23;10.40;99.90
19586;DHT22;9939;49.246;9.106;2023-04-15T16:16:11;10.10;99.90
19586;DHT22;9939;49.246;9.106;2023-04-15T16:18:58;10.00;99.90
19586;DHT22;9939;49.246;9.106;2023-04-15T16:21:46;10.00;99.90
19586;DHT22;9939;49.246;9.106;2023-04-15T16:24:33;9.90;99.90
19586;DHT22;9939;49.246;9.106;2023-04-15T16:27:20;9.80;99.90
19586;DHT22;9939;49.246;9.106;2023-04-15T16:30:08;9.80;99.90
19586;DHT22;9939;49.246;9.106;2023-04-15T16:32:56;9.70;99.90
19586;DHT22;9939;49.246;9.106;2023-04-15T16:35:43;9.60;99.90
19586;DHT22;9939;49.246;9.106;2023-04-15T16:38:30;9.60;99.90
19586;DHT22;9939;49.246;9.106;2023-04-15T16:41:18;9.60;99.90
19586;DHT22;9939;49.246;9.106;2023-04-15T16:44:05;9.60;99.90
19586;DHT22;9939;49.246;9.106;2023-04-15T16:46:54;9.60;99.90
19586;DHT22;9939;49.246;9.106;2023-04-15T16:49:42;9.70;99.90
19586;DHT22;9939;49.246;9.106;2023-04-15T16:52:29;9.60;99.90
19586;DHT22;9939;49.246;9.106;2023-04-15T16:55:16;9.60;99.90
19586;DHT22;9939;49.246;9.106;2023-04-15T16:58:04;9.50;99.90
19586;DHT22;9939;49.246;9.106;2023-04-15T17:00:54;9.50;99.90
19586;DHT22;9939;49.246;9.106;2023-04-15T17:03:41;9.60;99.90
19586;DHT22;9939;49.246;9.106;2023-04-15T17:06:29;9.50;99.90
19586;DHT22;9939;49.246;9.106;2023-04-15T17:09:17;9.50;99.90
19586;DHT22;9939;49.246;9.106;2023-04-15T17:12:05;9.60;99.90
19586;DHT22;9939;49.246;9.106;2023-04-15T17:14:52;9.60;99.90
19586;DHT22;9939;49.246;9.106;2023-04-15T17:17:40;9.60;99.90
19586;DHT22;9939;49.246;9.106;2023-04-15T17:20:27;9.60;99.90
19586;DHT22;9939;49.246;9.106;2023-04-15T17:23:15;9.70;99.90
19586;DHT22;9939;49.246;9.106;2023-04-15T17:26:03;9.70;99.90
19586;DHT22;9939;49.246;9.106;2023-04-15T17:28:50;9.70;99.90
19586;DHT22;9939;49.246;9.106;2023-04-15T17:31:37;9.70;99.90
19586;DHT22;9939;49.246;9.106;2023-04-15T17:34:27;9.40;99.90
19586;DHT22;9939;49.246;9.106;2023-04-15T17:37:34;9.40;99.90
19586;DHT22;9939;49.246;9.106;2023-04-15T17:40:22;9.30;99.90
19586;DHT22;9939;49.246;9.106;2023-04-15T17:43:09;9.20;99.90
19586;DHT22;9939;49.246;9.106;2023-04-15T17:45:56;9.10;99.90
19586;DHT22;9939;49.246;9.106;2023-04-15T17:48:45;9.00;99.90
19586;DHT22;9939;49.246;9.106;2023-04-15T17:51:32;9.10;99.90
19586;DHT22;9939;49.246;9.106;2023-04-15T17:54:25;9.10;99.90
19586;DHT22;9939;49.246;9.106;2023-04-15T17:57:13;9.00;99.90
19586;DHT22;9939;49.246;9.106;2023-04-15T18:00:00;8.90;99.90
19586;DHT22;9939;49.246;9.106;2023-04-15T18:02:58;8.90;99.90
19586;DHT22;9939;49.246;9.106;2023-04-15T18:05:46;8.90;99.90
19586;DHT22;9939;49.246;9.106;2023-04-15T18:08:33;8.70;99.90
19586;DHT22;9939;49.246;9.106;2023-04-15T18:11:20;8.70;99.90